Time;durP1;ratioP1;P1;durP2;ratioP2;P2;SDS_P1;SDS_P2;PMS_P1;PMS_P2;Temp;Humidity;BMP_temperature;BMP_pressure;BME280_temperature;BME280_humidity;BME280_pressure;Samples;Min_cycle;Max_cycle;Signal;HPM_P1;HPM_P2
2022/11/01 00:01:56;;;;;;;72.80;39.70;;;;;;;5.88;100.00;98334.08;1705385;84;21481;-78
2022/11/01 00:04:22;;;;;;;73.85;39.13;;;;;;;5.82;100.00;98332.37;1705637;84;21101;-80
2022/11/01 00:06:49;;;;;;;72.70;38.60;;;;;;;5.83;100.00;98325.94;1705915;84;21065;-77
2022/11/01 00:09:15;;;;;;;70.62;40.90;;;;;;;5.79;100.00;98328.80;1705928;84;20950;-80
2022/11/01 00:11:41;;;;;;;74.25;41.08;;;;;;;5.81;100.00;98323.99;1679331;85;20953;-80
2022/11/01 00:14:07;;;;;;;76.87;38.53;;;;;;;5.80;100.00;98328.55;1697341;84;20953;-80
2022/11/01 00:16:33;;;;;;;66.37;36.20;;;;;;;5.75;100.00;98320.94;1704694;84;21049;-78
2022/11/01 00:18:59;;;;;;;76.20;41.13;;;;;;;5.71;100.00;98323.28;1713206;83;21162;-77
2022/11/01 00:21:25;;;;;;;73.00;38.42;;;;;;;5.68;100.00;98316.23;1711369;83;20912;-77
2022/11/01 00:23:50;;;;;;;70.42;40.05;;;;;;;5.63;100.00;98316.41;1722267;82;20973;-77
2022/11/01 00:26:20;;;;;;;73.70;41.08;;;;;;;5.59;100.00;98311.77;1730871;82;20942;-80
2022/11/01 00:28:46;;;;;;;71.65;38.30;;;;;;;5.52;100.00;98311.91;1731266;82;21446;-77
2022/11/01 00:31:12;;;;;;;66.33;36.28;;;;;;;5.50;100.00;98311.88;1719326;82;21096;-80
2022/11/01 00:33:38;;;;;;;61.02;34.13;;;;;;;5.49;100.00;98311.06;1688730;85;21055;-77
2022/11/01 00:36:05;;;;;;;56.28;32.85;;;;;;;5.50;100.00;98307.84;1689349;84;20999;-77
2022/11/01 00:38:31;;;;;;;60.70;32.90;;;;;;;5.51;100.00;98318.88;1689229;84;21074;-77
2022/11/01 00:40:57;;;;;;;64.82;36.10;;;;;;;5.53;100.00;98316.23;1679694;85;21066;-80
2022/11/01 00:43:23;;;;;;;58.40;32.40;;;;;;;5.59;100.00;98311.24;1679442;85;21011;-80
2022/11/01 00:45:49;;;;;;;60.63;31.27;;;;;;;5.69;100.00;98307.11;1679632;85;21415;-77
2022/11/01 00:48:15;;;;;;;59.05;31.48;;;;;;;5.75;100.00;98298.91;1679378;85;20895;-77
2022/11/01 00:50:40;;;;;;;63.45;35.15;;;;;;;5.81;100.00;98299.29;1679688;85;20940;-77
2022/11/01 00:53:08;;;;;;;64.92;32.48;;;;;;;5.86;100.00;98294.52;1679696;85;20896;-77
2022/11/01 00:55:34;;;;;;;53.42;32.28;;;;;;;5.88;100.00;98293.20;1667297;84;21367;-78
2022/11/01 00:58:00;;;;;;;56.15;33.88;;;;;;;5.88;100.00;98289.70;1679442;84;20959;-77
2022/11/01 01:00:26;;;;;;;55.10;31.70;;;;;;;5.84;100.00;98287.22;1679429;85;20931;-80
2022/11/01 01:02:51;;;;;;;55.33;29.25;;;;;;;5.79;100.00;98286.59;1679524;85;20881;-80
2022/11/01 01:05:17;;;;;;;53.80;29.45;;;;;;;5.75;100.00;98280.08;1679539;85;20880;-77
2022/11/01 01:07:43;;;;;;;59.73;31.35;;;;;;;5.74;100.00;98286.52;1679586;85;21648;-77
2022/11/01 01:10:09;;;;;;;59.83;30.82;;;;;;;5.72;100.00;98287.80;1657510;85;20869;-77
2022/11/01 01:12:35;;;;;;;56.98;29.27;;;;;;;5.64;100.00;98282.31;1681888;83;20959;-80
2022/11/01 01:15:02;;;;;;;53.73;29.50;;;;;;;5.60;100.00;98281.95;1714193;82;20873;-77
2022/11/01 01:17:28;;;;;;;55.15;29.55;;;;;;;5.56;100.00;98278.13;1711690;83;21016;-80
2022/11/01 01:19:53;;;;;;;57.98;30.97;;;;;;;5.50;100.00;98271.55;1711964;83;21087;-77
2022/11/01 01:22:19;;;;;;;59.48;31.87;;;;;;;5.46;100.00;98269.04;1681012;84;20965;-77
2022/11/01 01:24:46;;;;;;;46.80;28.52;;;;;;;5.34;100.00;98267.23;1711567;82;20941;-80
2022/11/01 01:27:13;;;;;;;46.00;27.95;;;;;;;5.29;100.00;98262.27;1722259;82;21016;-80
2022/11/01 01:29:43;;;;;;;51.18;29.48;;;;;;;5.30;100.00;98258.56;1711631;83;21028;-78
2022/11/01 01:32:13;;;;;;;48.17;27.00;;;;;;;5.32;100.00;98257.78;1726699;82;21097;-80
2022/11/01 01:34:39;;;;;;;49.20;25.17;;;;;;;5.35;100.00;98251.92;1731193;82;21022;-77
2022/11/01 01:37:09;;;;;;;51.20;25.43;;;;;;;5.37;100.00;98251.95;1730663;82;21041;-77
2022/11/01 01:39:35;;;;;;;45.50;25.08;;;;;;;5.35;100.00;98254.08;1731296;82;21009;-77
2022/11/01 01:42:06;;;;;;;48.58;23.80;;;;;;;5.33;100.00;98249.47;1730426;82;20994;-77
2022/11/01 01:44:49;;;;;;;41.30;24.45;;;;;;;5.35;100.00;98247.89;1707696;82;21348;-80
2022/11/01 01:47:29;;;;;;;47.98;27.00;;;;;;;5.35;100.00;98251.39;1744309;81;20989;-77
2022/11/01 01:50:12;;;;;;;48.55;25.17;;;;;;;5.35;100.00;98251.92;1744243;81;21103;-80
2022/11/01 01:52:58;;;;;;;39.92;25.27;;;;;;;5.34;100.00;98251.63;1744299;81;21445;-80
2022/11/01 01:55:29;;;;;;;43.28;25.88;;;;;;;5.30;100.00;98245.94;1744082;81;21044;-77
2022/11/01 01:57:55;;;;;;;45.03;25.62;;;;;;;5.30;100.00;98249.16;1744383;82;21162;-80
2022/11/01 02:00:21;;;;;;;48.20;25.92;;;;;;;5.30;100.00;98245.12;1744138;82;20862;-78
2022/11/01 02:02:47;;;;;;;47.00;26.80;;;;;;;5.28;100.00;98249.37;1744301;82;20898;-77
2022/11/01 02:05:43;;;;;;;45.50;26.62;;;;;;;5.29;100.00;98243.47;1744317;82;21481;-77
2022/11/01 02:08:09;;;;;;;39.95;22.80;;;;;;;5.32;100.00;98242.47;1744183;81;21484;-77
2022/11/01 02:10:35;;;;;;;44.88;24.37;;;;;;;5.40;100.00;98235.09;1744306;82;21171;-77
2022/11/01 02:13:01;;;;;;;37.20;21.25;;;;;;;5.44;100.00;98230.31;1736584;82;21971;-80
2022/11/01 02:15:38;;;;;;;40.58;22.10;;;;;;;5.45;100.00;98235.97;1714303;83;20845;-81
2022/11/01 02:18:26;;;;;;;39.42;21.90;;;;;;;5.45;100.00;98232.47;1711189;83;20997;-80
2022/11/01 02:21:18;;;;;;;47.20;23.83;;;;;;;5.43;100.00;98227.34;1714284;82;20997;-80
2022/11/01 02:23:58;;;;;;;37.85;22.90;;;;;;;5.38;100.00;98224.05;1710864;83;21157;-80
2022/11/01 02:26:50;;;;;;;38.17;22.15;;;;;;;5.35;100.00;98221.83;1704413;83;20977;-77
2022/11/01 02:29:40;;;;;;;39.50;21.77;;;;;;;5.38;100.00;98224.05;1714373;82;20975;-77
2022/11/01 02:32:19;;;;;;;36.48;20.92;;;;;;;5.44;100.00;98221.44;1727092;82;21029;-77
2022/11/01 02:34:58;;;;;;;37.70;20.23;;;;;;;5.49;100.00;98220.20;1742774;82;21041;-80
2022/11/01 02:37:36;;;;;;;36.13;21.97;;;;;;;5.48;100.00;98216.70;1744644;81;21133;-77
2022/11/01 02:40:08;;;;;;;35.28;21.37;;;;;;;5.48;100.00;98222.07;1744338;81;21000;-77
2022/11/01 02:42:37;;;;;;;35.52;19.75;;;;;;;5.49;100.00;98223.70;1744477;82;21407;-77
2022/11/01 02:45:11;;;;;;;39.05;20.62;;;;;;;5.52;100.00;98226.42;1744424;82;21002;-77
2022/11/01 02:47:37;;;;;;;37.85;19.90;;;;;;;5.51;100.00;98220.23;1744340;82;21009;-80
2022/11/01 02:50:06;;;;;;;37.00;21.33;;;;;;;5.50;100.00;98219.14;1744423;82;21099;-80
2022/11/01 02:52:34;;;;;;;43.25;21.80;;;;;;;5.45;100.00;98222.53;1744479;82;27110;-80
2022/11/01 02:55:06;;;;;;;37.13;21.00;;;;;;;5.42;100.00;98216.84;1743702;80;32496;-80
2022/11/01 02:57:38;;;;;;;42.75;23.05;;;;;;;5.38;100.00;98224.55;1743686;82;21001;-77
2022/11/01 03:00:27;;;;;;;43.15;20.23;;;;;;;5.26;100.00;98211.19;1744101;81;21322;-78
2022/11/01 03:03:01;;;;;;;39.30;21.07;;;;;;;5.23;100.00;98221.08;1744491;82;21154;-80
2022/11/01 03:05:55;;;;;;;38.60;21.42;;;;;;;5.18;100.00;98221.50;1744213;82;20950;-80
2022/11/01 03:08:28;;;;;;;41.95;23.10;;;;;;;5.18;100.00;98217.47;1744297;82;21001;-80
2022/11/01 03:11:13;;;;;;;41.63;23.18;;;;;;;5.19;100.00;98225.81;1744231;81;20993;-77
2022/11/01 03:14:14;;;;;;;37.60;22.93;;;;;;;5.20;100.00;98224.75;1729071;82;21044;-80
2022/11/01 03:17:01;;;;;;;41.18;23.32;;;;;;;5.17;100.00;98223.38;1711268;83;21339;-80
2022/11/01 03:19:52;;;;;;;32.30;20.45;;;;;;;5.11;100.00;98217.61;1714000;83;20962;-80
2022/11/01 03:22:25;;;;;;;33.48;21.37;;;;;;;5.09;100.00;98220.53;1711533;83;21000;-80
2022/11/01 03:28:00;;;;;;;39.25;20.68;;;;;;;5.05;100.00;98223.42;1714767;82;21037;-80
2022/11/01 03:30:26;;;;;;;37.93;20.37;;;;;;;5.07;100.00;98220.50;1714468;82;21165;-78
2022/11/01 03:32:54;;;;;;;44.15;22.45;;;;;;;5.07;100.00;98218.63;1744159;82;20874;-80
2022/11/01 03:35:26;;;;;;;43.20;21.80;;;;;;;5.01;100.00;98217.41;1744164;81;21044;-78
2022/11/01 03:37:55;;;;;;;36.48;20.65;;;;;;;4.96;100.00;98216.80;1744123;82;20997;-80
2022/11/01 03:40:21;;;;;;;;;;;;;;;4.94;100.00;98208.67;1747031;82;21016;-77
2022/11/01 03:42:48;;;;;;;40.17;19.52;;;;;;;4.94;100.00;98212.70;1744481;82;21079;-77
2022/11/01 03:45:18;;;;;;;36.83;21.15;;;;;;;4.90;100.00;98211.03;1744150;82;20996;-78
2022/11/01 03:47:44;;;;;;;37.42;21.15;;;;;;;4.87;100.00;98212.02;1744322;81;21052;-80
2022/11/01 03:50:19;;;;;;;41.28;20.85;;;;;;;4.81;100.00;98216.48;1744323;82;21519;-77
2022/11/01 03:52:45;;;;;;;41.75;20.27;;;;;;;4.78;100.00;98221.78;1744227;82;21960;-77
2022/11/01 03:55:18;;;;;;;41.18;22.52;;;;;;;4.76;100.00;98223.08;1744253;82;21159;-77
2022/11/01 03:57:52;;;;;;;49.27;25.82;;;;;;;4.75;100.00;98220.93;1744049;81;21001;-80
2022/11/01 04:00:23;;;;;;;39.18;22.62;;;;;;;4.76;100.00;98223.90;1744135;82;21012;-77
2022/11/01 04:02:50;;;;;;;47.08;25.08;;;;;;;4.79;100.00;98214.05;1744276;81;21430;-78
2022/11/01 04:05:16;;;;;;;39.50;21.57;;;;;;;4.78;100.00;98216.95;1744317;82;21021;-77
2022/11/01 04:07:42;;;;;;;41.83;22.35;;;;;;;4.75;100.00;98213.41;1744310;81;21127;-77
2022/11/01 04:10:08;;;;;;;44.38;22.45;;;;;;;4.75;100.00;98214.22;1744306;81;20862;-80
2022/11/01 04:12:34;;;;;;;44.98;22.45;;;;;;;4.76;100.00;98210.48;1742561;82;20950;-77
2022/11/01 04:20:32;;;;;;;34.23;18.48;;;;;;;4.65;100.00;98210.52;1714276;82;21110;-80
2022/11/01 04:23:03;;;;;;;33.63;18.45;;;;;;;4.64;100.00;98208.89;1722147;82;21934;-80
2022/11/01 04:25:29;;;;;;;33.90;19.87;;;;;;;4.59;100.00;98203.40;1711781;83;21044;-80
2022/11/01 04:27:55;;;;;;;42.48;23.65;;;;;;;4.56;100.00;98198.52;1654259;86;20972;-77
2022/11/01 04:30:23;;;;;;;40.90;20.25;;;;;;;4.60;100.00;98192.95;1654052;85;20926;-79
2022/11/01 04:32:49;;;;;;;36.93;22.42;;;;;;;4.61;100.00;98203.44;1708350;82;21363;-80
2022/11/01 04:35:15;;;;;;;45.17;24.05;;;;;;;4.65;100.00;98194.41;1708062;84;20886;-80
2022/11/01 04:37:41;;;;;;;38.67;21.77;;;;;;;4.67;100.00;98202.51;1707932;84;21399;-77
2022/11/01 04:40:08;;;;;;;53.10;22.62;;;;;;;4.69;100.00;98201.73;1708090;84;20949;-80
2022/11/01 04:42:34;;;;;;;48.55;20.85;;;;;;;4.73;100.00;98194.04;1708029;83;20989;-77
2022/11/01 04:45:01;;;;;;;33.20;18.77;;;;;;;4.74;100.00;98189.77;1708031;84;21076;-80
2022/11/01 04:47:27;;;;;;;41.37;21.68;;;;;;;4.77;100.00;98190.62;1707980;83;21482;-77
2022/11/01 04:49:53;;;;;;;42.17;21.80;;;;;;;4.80;100.00;98189.36;1708124;83;20898;-77
2022/11/01 04:52:19;;;;;;;43.60;22.70;;;;;;;4.81;100.00;98186.43;1707965;84;21111;-80
2022/11/01 04:54:45;;;;;;;35.05;19.00;;;;;;;4.86;100.00;98183.54;1708173;84;20946;-79
2022/11/01 04:57:23;;;;;;;43.60;19.87;;;;;;;4.86;100.00;98186.22;1707997;84;21080;-77
2022/11/01 04:59:53;;;;;;;41.97;20.13;;;;;;;4.86;100.00;98174.95;1708150;84;20995;-80
2022/11/01 05:02:20;;;;;;;46.50;22.40;;;;;;;4.88;100.00;98174.21;1707958;84;21017;-77
2022/11/01 05:04:46;;;;;;;35.88;19.42;;;;;;;4.89;100.00;98177.19;1708021;84;21460;-77
2022/11/01 05:07:12;;;;;;;35.08;18.17;;;;;;;4.90;100.00;98184.70;1708149;84;20954;-77
2022/11/01 05:09:38;;;;;;;40.65;19.90;;;;;;;4.93;100.00;98176.16;1708078;84;21944;-77
2022/11/01 05:12:04;;;;;;;37.70;21.25;;;;;;;4.89;100.00;98177.19;1707929;84;20886;-77
2022/11/01 05:14:30;;;;;;;46.63;20.55;;;;;;;4.91;100.00;98183.66;1705045;84;21045;-80
2022/11/01 05:16:56;;;;;;;45.30;24.27;;;;;;;4.91;100.00;98173.72;1704395;84;20862;-77
2022/11/01 05:19:22;;;;;;;43.25;23.65;;;;;;;4.95;100.00;98193.66;1714275;82;20988;-80
2022/11/01 05:21:48;;;;;;;50.50;23.52;;;;;;;4.99;100.00;98182.74;1714444;82;21104;-79
2022/11/01 05:24:14;;;;;;;45.50;21.65;;;;;;;5.03;100.00;98187.91;1714248;82;20953;-80
2022/11/01 05:26:40;;;;;;;42.78;22.32;;;;;;;5.09;100.00;98184.80;1713557;82;20973;-80
2022/11/01 05:29:06;;;;;;;49.50;21.85;;;;;;;5.10;100.00;98185.09;1714145;82;20958;-77
2022/11/01 05:31:32;;;;;;;46.92;22.60;;;;;;;5.10;100.00;98172.47;1722139;82;21595;-77
2022/11/01 05:33:58;;;;;;;43.02;20.62;;;;;;;5.12;100.00;98172.22;1737019;82;21302;-80
2022/11/01 05:36:24;;;;;;;47.38;23.65;;;;;;;5.16;100.00;98166.67;1744116;82;20889;-80
2022/11/01 05:38:50;;;;;;;45.52;22.93;;;;;;;5.14;100.00;98163.42;1744063;82;20965;-77
2022/11/01 05:41:16;;;;;;;44.35;24.18;;;;;;;5.15;100.00;98163.70;1744153;82;20890;-77
2022/11/01 05:43:42;;;;;;;46.23;26.05;;;;;;;5.15;100.00;98167.73;1744100;82;20913;-80
2022/11/01 05:46:07;;;;;;;65.55;29.87;;;;;;;5.20;100.00;98170.49;1744287;82;21267;-80
2022/11/01 05:48:33;;;;;;;62.75;29.07;;;;;;;5.23;100.00;98168.69;1744045;82;20984;-77
2022/11/01 05:50:59;;;;;;;58.83;30.05;;;;;;;5.17;100.00;98169.64;1744157;82;20909;-80
2022/11/01 05:53:26;;;;;;;64.55;26.75;;;;;;;5.17;100.00;98170.17;1744116;81;21421;-78
2022/11/01 05:55:56;;;;;;;51.02;27.30;;;;;;;5.20;100.00;98180.42;1744257;82;20985;-79
2022/11/01 05:58:22;;;;;;;64.62;25.37;;;;;;;5.25;100.00;98175.97;1744163;81;21845;-77
2022/11/01 06:00:48;;;;;;;56.58;27.37;;;;;;;5.32;100.00;98175.30;1744259;82;20941;-77
2022/11/01 06:03:14;;;;;;;47.55;26.05;;;;;;;5.31;100.00;98168.30;1744443;82;20854;-77
2022/11/01 06:05:40;;;;;;;57.38;25.15;;;;;;;5.33;100.00;98174.77;1744421;81;20909;-77
2022/11/01 06:08:06;;;;;;;61.53;23.92;;;;;;;5.43;100.00;98177.63;1744387;82;20870;-80
2022/11/01 06:10:32;;;;;;;51.30;24.90;;;;;;;5.48;100.00;98177.72;1744557;82;21872;-80
2022/11/01 06:12:58;;;;;;;54.70;25.62;;;;;;;5.52;100.00;98176.70;1737750;81;20957;-78
2022/11/01 06:15:24;;;;;;;59.20;25.85;;;;;;;5.63;100.00;98175.80;1722311;82;21457;-80
2022/11/01 06:17:57;;;;;;;58.08;29.12;;;;;;;5.74;100.00;98179.48;1722089;82;21319;-81
2022/11/01 06:20:24;;;;;;;61.95;28.07;;;;;;;5.85;100.00;98182.09;1711718;83;21044;-78
2022/11/01 06:22:50;;;;;;;58.90;27.85;;;;;;;5.94;100.00;98187.90;1714468;82;21146;-80
2022/11/01 06:25:16;;;;;;;77.67;34.58;;;;;;;5.98;100.00;98187.68;1714488;83;20925;-80
2022/11/01 06:27:42;;;;;;;69.22;29.82;;;;;;;6.04;100.00;98196.13;1711402;83;21058;-78
2022/11/01 06:30:10;;;;;;;72.97;30.48;;;;;;;6.12;100.00;98201.63;1714607;82;20881;-78
2022/11/01 06:32:36;;;;;;;62.65;32.93;;;;;;;6.17;100.00;98205.74;1695659;82;21470;-80
2022/11/01 06:35:02;;;;;;;75.57;33.10;;;;;;;6.24;100.00;98209.08;1708217;84;21171;-77
2022/11/01 06:37:27;;;;;;;75.30;28.98;;;;;;;6.34;100.00;98203.03;1707772;84;20890;-80
2022/11/01 06:39:53;;;;;;;75.62;27.48;;;;;;;6.43;100.00;98198.84;1708103;84;21547;-80
2022/11/01 06:42:19;;;;;;;73.28;29.90;;;;;;;6.55;100.00;98204.92;1707729;84;20934;-78
2022/11/01 06:44:45;;;;;;;63.63;28.45;;;;;;;6.71;100.00;98197.86;1708275;84;20867;-77
2022/11/01 06:47:11;;;;;;;63.00;28.47;;;;;;;6.87;100.00;98194.83;1707978;84;21635;-81
2022/11/01 06:49:37;;;;;;;60.17;27.87;;;;;;;7.01;100.00;98204.16;1707994;83;21064;-80
2022/11/01 06:52:04;;;;;;;69.32;28.83;;;;;;;7.04;100.00;98209.84;1707970;84;20887;-77
2022/11/01 06:54:31;;;;;;;248.87;108.65;;;;;;;7.12;100.00;98210.47;1708119;84;21496;-79
2022/11/01 06:56:57;;;;;;;72.53;34.05;;;;;;;7.23;100.00;98209.51;1707787;84;21030;-80
2022/11/01 06:59:23;;;;;;;69.47;28.67;;;;;;;7.28;100.00;98217.13;1707961;84;21246;-77
2022/11/01 07:01:51;;;;;;;66.97;28.85;;;;;;;7.28;100.00;98208.23;1707834;83;21038;-80
2022/11/01 07:04:17;;;;;;;60.15;28.38;;;;;;;7.28;100.00;98208.23;1707740;84;20979;-80
2022/11/01 07:06:43;;;;;;;69.62;32.13;;;;;;;7.34;100.00;98209.89;1708005;84;20970;-79
2022/11/01 07:09:09;;;;;;;76.25;38.38;;;;;;;7.46;100.00;98206.52;1707918;83;21246;-80
2022/11/01 07:11:35;;;;;;;71.50;36.70;;;;;;;7.54;100.00;98201.20;1707895;83;21088;-80
2022/11/01 07:14:01;;;;;;;55.17;27.80;;;;;;;7.58;100.00;98205.01;1706902;84;21607;-81
2022/11/01 07:16:27;;;;;;;51.77;25.57;;;;;;;7.63;100.00;98205.06;1706581;84;20989;-77
2022/11/01 07:18:54;;;;;;;52.78;23.80;;;;;;;7.63;100.00;98207.23;1706400;83;20921;-80
2022/11/01 07:21:20;;;;;;;55.52;27.37;;;;;;;7.75;100.00;98194.09;1706440;84;21021;-80
2022/11/01 07:23:45;;;;;;;50.85;27.85;;;;;;;7.81;100.00;98195.78;1706567;84;21165;-81
2022/11/01 07:26:11;;;;;;;53.63;26.00;;;;;;;7.85;100.00;98192.29;1706380;84;20889;-78
2022/11/01 07:28:38;;;;;;;47.95;24.95;;;;;;;7.89;100.00;98192.07;1706513;84;20957;-80
2022/11/01 07:31:04;;;;;;;60.20;35.35;;;;;;;8.05;100.00;98192.19;1706916;84;21475;-80
2022/11/01 07:33:31;;;;;;;77.47;57.35;;;;;;;8.10;100.00;98181.41;1708076;84;21009;-81
2022/11/01 07:35:56;;;;;;;86.78;59.15;;;;;;;8.15;100.00;98183.62;1708014;84;21308;-77
2022/11/01 07:38:22;;;;;;;59.53;36.98;;;;;;;8.20;100.00;98179.62;1708004;84;20914;-80
2022/11/01 07:40:49;;;;;;;54.88;33.45;;;;;;;8.28;100.00;98178.29;1708125;84;20973;-78
2022/11/01 07:43:16;;;;;;;155.07;128.05;;;;;;;8.35;100.00;98175.39;1707882;84;20994;-80
2022/11/01 07:45:42;;;;;;;72.08;52.50;;;;;;;8.36;100.00;98182.42;1708226;84;21042;-78
2022/11/01 07:48:11;;;;;;;43.20;26.57;;;;;;;8.28;100.00;98159.93;1708034;84;21348;-78
2022/11/01 07:50:38;;;;;;;38.95;24.32;;;;;;;8.38;100.00;98166.25;1708196;84;21018;-80
2022/11/01 07:53:17;;;;;;;42.13;24.55;;;;;;;8.44;100.00;98165.19;1708033;83;21054;-81
2022/11/01 07:55:44;;;;;;;43.08;25.57;;;;;;;8.53;100.00;98174.95;1708043;84;21053;-80
2022/11/01 07:58:10;;;;;;;71.42;58.78;;;;;;;8.73;100.00;98179.12;1707988;83;21438;-78
2022/11/01 08:00:36;;;;;;;76.92;59.80;;;;;;;8.87;100.00;98174.56;1708161;83;21143;-78
2022/11/01 08:03:04;;;;;;;58.02;43.28;;;;;;;8.91;100.00;98179.73;1707854;83;21454;-80
2022/11/01 08:05:31;;;;;;;45.12;27.77;;;;;;;9.02;100.00;98184.89;1707918;84;21021;-78
2022/11/01 08:07:57;;;;;;;81.75;64.15;;;;;;;9.07;100.00;98180.59;1707995;83;21006;-80
2022/11/01 08:10:22;;;;;;;73.00;52.85;;;;;;;9.02;100.00;98197.59;1708384;84;20918;-81
2022/11/01 08:12:48;;;;;;;54.93;37.90;;;;;;;8.92;100.00;98197.02;1707310;84;21047;-80
2022/11/01 08:15:14;;;;;;;40.83;26.12;;;;;;;8.90;100.00;98197.02;1704466;84;20858;-78
2022/11/01 08:17:40;;;;;;;37.60;25.70;;;;;;;8.97;100.00;98194.35;1704604;84;20929;-78
2022/11/01 08:20:08;;;;;;;58.45;40.52;;;;;;;9.00;100.00;98194.35;1704625;84;20851;-81
2022/11/01 08:22:41;;;;;;;43.80;31.20;;;;;;;8.93;100.00;98185.67;1704263;83;20958;-81
2022/11/01 08:25:07;;;;;;;53.63;42.75;;;;;;;9.06;100.00;98185.19;1715204;82;21142;-78
2022/11/01 08:27:33;;;;;;;67.58;49.70;;;;;;;9.25;100.00;98180.91;1709512;83;20958;-81
2022/11/01 08:29:59;;;;;;;38.42;26.05;;;;;;;9.38;100.00;98174.70;1711798;83;20930;-81
2022/11/01 08:32:25;;;;;;;38.08;22.30;;;;;;;9.48;100.00;98175.52;1707313;83;20954;-78
2022/11/01 08:34:51;;;;;;;47.75;33.40;;;;;;;9.46;100.00;98174.98;1708032;84;21024;-81
2022/11/01 08:37:17;;;;;;;39.70;27.48;;;;;;;9.48;100.00;98180.13;1707945;84;21696;-81
2022/11/01 08:39:44;;;;;;;44.75;28.38;;;;;;;9.48;100.00;98181.47;1708163;84;20951;-78
2022/11/01 08:42:10;;;;;;;35.78;23.98;;;;;;;9.53;100.00;98172.84;1707897;82;21414;-78
2022/11/01 08:44:36;;;;;;;31.82;19.42;;;;;;;9.57;100.00;98174.45;1708147;84;21528;-79
2022/11/01 08:47:02;;;;;;;38.73;25.77;;;;;;;9.60;100.00;98165.81;1707752;82;20982;-81
2022/11/01 08:49:28;;;;;;;45.08;27.70;;;;;;;9.63;100.00;98161.75;1708132;84;22004;-81
2022/11/01 08:51:54;;;;;;;38.02;23.80;;;;;;;9.63;100.00;98161.20;1708009;84;20891;-78
2022/11/01 08:54:20;;;;;;;35.17;24.63;;;;;;;9.71;100.00;98166.08;1707902;84;20887;-78
2022/11/01 08:56:46;;;;;;;32.60;19.95;;;;;;;9.76;100.00;98163.94;1707919;84;21451;-82
2022/11/01 08:59:12;;;;;;;35.35;20.32;;;;;;;9.90;100.00;98171.76;1707849;83;20902;-79
2022/11/01 09:01:38;;;;;;;38.38;23.87;;;;;;;10.07;100.00;98183.66;1707960;84;21424;-78
2022/11/01 09:04:05;;;;;;;30.68;18.82;;;;;;;10.16;100.00;98185.55;1707754;84;20966;-78
2022/11/01 09:06:31;;;;;;;33.60;18.85;;;;;;;10.07;100.00;98191.23;1707972;84;21057;-78
2022/11/01 09:08:57;;;;;;;32.63;21.12;;;;;;;10.03;100.00;98188.01;1707942;84;20863;-78
2022/11/01 09:11:23;;;;;;;40.40;25.55;;;;;;;9.96;100.00;98193.69;1707947;84;20882;-81
2022/11/01 09:13:51;;;;;;;65.70;46.33;;;;;;;9.94;100.00;98194.52;1707157;83;21341;-79
2022/11/01 09:16:18;;;;;;;73.33;52.25;;;;;;;9.82;100.00;98195.30;1706335;83;21017;-79
2022/11/01 09:18:44;;;;;;;62.85;39.53;;;;;;;9.73;100.00;98202.34;1706251;84;21075;-81
2022/11/01 09:21:10;;;;;;;50.20;32.60;;;;;;;9.75;100.00;98190.73;1706482;83;20988;-81
2022/11/01 09:23:36;;;;;;;49.23;32.23;;;;;;;9.74;100.00;98192.63;1706420;83;20980;-82
2022/11/01 09:26:07;;;;;;;50.83;32.17;;;;;;;9.76;100.00;98197.22;1706449;83;21548;-81
2022/11/01 09:28:33;;;;;;;53.85;29.48;;;;;;;9.71;100.00;98205.31;1706385;84;21061;-81
2022/11/01 09:31:06;;;;;;;54.75;35.83;;;;;;;9.75;100.00;98201.01;1707030;84;20953;-78
2022/11/01 09:33:32;;;;;;;55.60;36.03;;;;;;;9.66;100.00;98194.51;1707752;83;21084;-81
2022/11/01 09:35:58;;;;;;;50.15;31.17;;;;;;;9.65;100.00;98196.11;1708049;83;20978;-79
2022/11/01 09:38:25;;;;;;;39.10;26.15;;;;;;;9.70;100.00;98206.41;1707746;84;21302;-78
2022/11/01 09:41:08;;;;;;;49.13;31.23;;;;;;;9.59;100.00;98202.07;1708143;84;20947;-81
2022/11/01 09:43:36;;;;;;;44.73;28.35;;;;;;;9.57;100.00;98206.41;1707846;83;21418;-78
2022/11/01 09:46:03;;;;;;;45.55;30.55;;;;;;;9.53;100.00;98212.06;1708054;84;21061;-81
2022/11/01 09:48:30;;;;;;;50.38;34.18;;;;;;;9.59;100.00;98200.17;1707623;84;21253;-80
2022/11/01 09:50:56;;;;;;;41.77;27.50;;;;;;;9.38;100.00;98202.56;1708049;83;21131;-78
2022/11/01 09:53:25;;;;;;;75.47;57.95;;;;;;;9.31;100.00;98201.48;1707703;84;20942;-82
2022/11/01 09:56:11;;;;;;;43.87;25.70;;;;;;;9.35;100.00;98190.12;1707748;83;21021;-81
2022/11/01 09:58:52;;;;;;;49.80;29.48;;;;;;;9.51;100.00;98186.37;1708002;83;21008;-78
2022/11/01 10:01:42;;;;;;;45.83;23.75;;;;;;;9.63;100.00;98181.50;1708034;83;21006;-81
2022/11/01 10:04:29;;;;;;;47.83;28.47;;;;;;;9.79;100.00;98191.25;1707721;83;21138;-78
2022/11/01 10:07:31;;;;;;;39.33;22.25;;;;;;;10.13;100.00;98202.34;1707990;82;20986;-81
2022/11/01 10:10:25;;;;;;;35.68;23.98;;;;;;;10.43;100.00;98205.59;1707970;83;21054;-80
2022/11/01 10:13:31;;;;;;;45.75;27.55;;;;;;;10.61;100.00;98206.91;1707263;83;21010;-78
2022/11/01 10:16:37;;;;;;;47.13;29.02;;;;;;;10.90;100.00;98214.40;1706699;84;21013;-77
2022/11/01 10:19:17;;;;;;;35.80;22.67;;;;;;;10.91;100.00;98208.70;1706233;84;22086;-80
2022/11/01 10:21:48;;;;;;;34.58;21.82;;;;;;;10.96;100.00;98209.23;1705349;84;21013;-77
2022/11/01 10:24:39;;;;;;;38.55;24.72;;;;;;;10.97;100.00;98198.11;1714243;82;21041;-78
2022/11/01 10:27:38;;;;;;;39.20;24.00;;;;;;;10.97;100.00;98208.14;1711061;83;21057;-80
2022/11/01 10:30:10;;;;;;;33.25;19.70;;;;;;;11.01;100.00;98209.20;1704619;82;20981;-80
2022/11/01 10:32:44;;;;;;;36.80;22.00;;;;;;;11.14;100.00;98213.22;1707102;84;21085;-81
2022/11/01 10:35:18;;;;;;;34.88;23.25;;;;;;;11.30;100.00;98212.06;1703937;84;20947;-81
2022/11/01 10:37:52;;;;;;;38.33;23.83;;;;;;;11.36;100.00;98217.70;1707899;83;21030;-81
2022/11/01 10:40:26;;;;;;;34.55;21.82;;;;;;;11.34;100.00;98221.25;1700621;83;21048;-81
2022/11/01 10:42:52;;;;;;;40.05;22.80;;;;;;;11.48;100.00;98222.27;1707940;83;21300;-79
2022/11/01 10:45:18;;;;;;;38.90;24.00;;;;;;;11.57;100.00;98220.58;1707958;84;21153;-81
2022/11/01 10:47:47;;;;;;;39.83;22.05;;;;;;;11.76;100.00;98222.08;1707791;84;22085;-78
2022/11/01 10:50:18;;;;;;;47.38;22.55;;;;;;;11.70;100.00;98212.34;1695308;84;21481;-78
2022/11/01 10:52:54;;;;;;;38.05;22.80;;;;;;;11.77;100.00;98210.12;1707929;84;21026;-78
2022/11/01 10:55:44;;;;;;;32.30;19.77;;;;;;;11.83;100.00;98202.24;1706981;83;20950;-78
2022/11/01 10:58:28;;;;;;;38.23;22.17;;;;;;;11.74;100.00;98202.55;1707913;83;21127;-81
2022/11/01 11:00:54;;;;;;;39.30;22.65;;;;;;;11.80;100.00;98200.66;1708199;83;20975;-78
2022/11/01 11:03:23;;;;;;;41.08;23.15;;;;;;;11.75;100.00;98195.22;1708004;82;20998;-81
2022/11/01 11:05:50;;;;;;;;;;;;;;;11.80;100.00;98202.02;1710760;83;20993;-78
2022/11/01 11:08:18;;;;;;;38.25;20.72;;;;;;;11.76;100.00;98200.91;1707955;84;20172;-81
2022/11/01 11:10:44;;;;;;;37.40;19.93;;;;;;;11.76;100.00;98191.41;1708618;84;21745;-78
2022/11/01 11:13:10;;;;;;;44.25;26.27;;;;;;;11.78;100.00;98191.92;1707324;84;21012;-81
2022/11/01 11:15:43;;;;;;;43.52;24.30;;;;;;;11.69;100.00;98192.27;1706674;83;21461;-81
2022/11/01 11:18:28;;;;;;;59.18;32.95;;;;;;;11.65;100.00;98191.22;1706455;84;20997;-78
2022/11/01 11:20:58;;;;;;;56.28;30.55;;;;;;;11.69;100.00;98192.27;1706654;83;20966;-78
2022/11/01 11:23:25;;;;;;;49.23;28.07;;;;;;;11.69;100.00;98186.29;1706238;84;21085;-78
2022/11/01 11:25:50;;;;;;;39.65;23.85;;;;;;;11.74;100.00;98184.09;1664757;84;21398;-81
2022/11/01 11:28:21;;;;;;;40.92;25.05;;;;;;;11.79;100.00;98180.81;1706381;84;21674;-80
2022/11/01 11:30:47;;;;;;;39.50;20.75;;;;;;;11.81;100.00;98181.36;1706883;84;20959;-78
2022/11/01 11:33:16;;;;;;;44.42;22.52;;;;;;;11.84;100.00;98173.99;1707994;84;20819;-78
2022/11/01 11:35:44;;;;;;;41.80;24.75;;;;;;;11.84;100.00;98168.56;1708366;83;21309;-78
2022/11/01 11:38:09;;;;;;;45.00;23.85;;;;;;;11.82;100.00;98172.12;1695675;84;21013;-81